createdAt,value
2023-03-27T00:00:06.008Z,84.88
2023-03-27T00:01:05.939Z,85.20
2023-03-27T00:02:05.917Z,85.13
2023-03-27T00:03:06.004Z,85.24
2023-03-27T00:04:06.059Z,85.65
2023-03-27T00:05:05.854Z,85.76
2023-03-27T00:06:05.799Z,85.76
2023-03-27T00:07:05.836Z,85.76
2023-03-27T00:08:05.912Z,86.07
2023-03-27T00:09:05.805Z,86.07
2023-03-27T00:10:05.784Z,85.97
2023-03-27T00:11:05.837Z,86.32
2023-03-27T00:12:05.796Z,86.43
2023-03-27T00:13:05.825Z,86.63
2023-03-27T00:14:05.761Z,86.63
2023-03-27T00:15:05.759Z,86.74
2023-03-27T00:16:05.761Z,87.05
2023-03-27T00:17:06.028Z,87.05
2023-03-27T00:18:05.762Z,87.37
2023-03-27T00:19:05.713Z,87.51
2023-03-27T00:20:05.707Z,87.40
2023-03-27T00:21:05.780Z,87.40
2023-03-27T00:22:05.685Z,87.61
2023-03-27T00:23:05.665Z,87.93
2023-03-27T00:24:05.721Z,88.13
2023-03-27T00:25:05.498Z,88.13
2023-03-27T00:26:05.705Z,88.13
2023-03-27T00:27:05.633Z,88.13
2023-03-27T00:28:05.717Z,88.39
2023-03-27T00:29:05.634Z,88.17
2023-03-27T00:30:05.640Z,88.49
2023-03-27T00:31:05.743Z,88.49
2023-03-27T00:32:05.586Z,88.39
2023-03-27T00:33:05.635Z,88.39
2023-03-27T00:34:05.687Z,88.59
2023-03-27T00:35:05.543Z,88.49
2023-03-27T00:36:05.568Z,88.39
2023-03-27T00:37:05.576Z,87.96
2023-03-27T00:38:05.509Z,87.96
2023-03-27T00:39:05.613Z,88.39
2023-03-27T00:40:05.538Z,88.70
2023-03-27T00:41:05.514Z,88.49
2023-03-27T00:42:05.480Z,88.49
2023-03-27T00:43:05.464Z,88.39
2023-03-27T00:44:05.317Z,88.32
2023-03-27T00:45:05.542Z,88.49
2023-03-27T00:46:05.470Z,88.42
2023-03-27T00:47:05.452Z,88.42
2023-03-27T00:48:05.480Z,88.53
2023-03-27T00:49:05.526Z,88.53
2023-03-27T00:50:05.442Z,88.32
2023-03-27T00:51:05.430Z,88.32
2023-03-27T00:52:05.431Z,88.53
2023-03-27T00:53:05.442Z,88.53
2023-03-27T00:54:05.526Z,88.53
2023-03-27T00:55:05.407Z,88.64
2023-03-27T00:56:05.413Z,88.74
2023-03-27T00:57:05.546Z,88.64
2023-03-27T00:58:05.436Z,88.53
2023-03-27T00:59:05.355Z,88.64
2023-03-27T01:00:06.685Z,88.74
2023-03-27T01:01:05.442Z,88.74
2023-03-27T01:02:05.380Z,88.84
2023-03-27T01:03:05.435Z,88.95
2023-03-27T01:04:05.302Z,88.95
2023-03-27T01:05:05.303Z,88.95
2023-03-27T01:06:05.440Z,88.95
2023-03-27T01:07:05.294Z,88.95
2023-03-27T01:08:05.270Z,88.74
2023-03-27T01:09:05.245Z,88.74
2023-03-27T01:10:05.245Z,88.95
2023-03-27T01:11:05.364Z,88.95
2023-03-27T01:12:05.370Z,89.05
2023-03-27T01:13:05.173Z,89.15
2023-03-27T01:14:05.161Z,89.20
2023-03-27T01:15:05.156Z,89.20
2023-03-27T01:16:05.194Z,89.30
2023-03-27T01:17:05.257Z,89.09
2023-03-27T01:18:05.184Z,88.99
2023-03-27T01:19:05.174Z,88.99
2023-03-27T01:20:05.156Z,88.99
2023-03-27T01:21:05.145Z,89.40
2023-03-27T01:22:05.029Z,89.51
2023-03-27T01:23:05.195Z,89.51
2023-03-27T01:24:05.082Z,89.51
2023-03-27T01:25:05.089Z,89.72
2023-03-27T01:26:05.079Z,89.86
2023-03-27T01:27:05.066Z,89.65
2023-03-27T01:28:05.133Z,89.76
2023-03-27T01:29:05.026Z,89.86
2023-03-27T01:30:05.013Z,90.18
2023-03-27T01:31:05.030Z,90.39
2023-03-27T01:32:05.041Z,90.39
2023-03-27T01:33:05.153Z,90.18
2023-03-27T01:34:05.054Z,90.18
2023-03-27T01:35:04.975Z,90.49
2023-03-27T01:36:05.007Z,90.59
2023-03-27T01:37:04.858Z,90.49
2023-03-27T01:38:05.033Z,90.39
2023-03-27T01:39:04.948Z,90.39
2023-03-27T01:40:04.946Z,90.59
2023-03-27T01:41:04.955Z,90.39
2023-03-27T01:42:04.937Z,90.28
2023-03-27T01:43:04.948Z,90.28
2023-03-27T01:44:05.040Z,90.18
2023-03-27T01:45:04.907Z,90.39
2023-03-27T01:46:04.898Z,90.59
2023-03-27T01:47:04.882Z,90.59
2023-03-27T01:48:04.876Z,90.81
2023-03-27T01:49:04.813Z,90.70
2023-03-27T01:50:04.726Z,90.49
2023-03-27T01:51:04.833Z,90.59
2023-03-27T01:52:04.839Z,90.91
2023-03-27T01:53:04.834Z,90.70
2023-03-27T01:54:04.836Z,90.70
2023-03-27T01:55:04.979Z,90.70
2023-03-27T01:56:04.838Z,90.81
2023-03-27T01:57:04.815Z,90.70
2023-03-27T01:58:04.757Z,90.59
2023-03-27T01:59:04.821Z,90.59
2023-03-27T02:00:17.605Z,90.81
2023-03-27T02:01:05.199Z,90.91
2023-03-27T02:02:04.730Z,91.02
2023-03-27T02:03:04.782Z,91.02
2023-03-27T02:04:04.743Z,91.12
2023-03-27T02:05:04.798Z,91.22
2023-03-27T02:06:04.852Z,91.02
2023-03-27T02:07:04.676Z,91.02
2023-03-27T02:08:04.691Z,91.02
2023-03-27T02:09:04.710Z,91.22
2023-03-27T02:10:04.649Z,91.22
2023-03-27T02:11:04.740Z,91.16
2023-03-27T02:12:04.746Z,91.16
2023-03-27T02:13:04.504Z,91.27
2023-03-27T02:14:04.617Z,91.47
2023-03-27T02:15:23.600Z,91.47
2023-03-27T02:16:04.845Z,91.37
2023-03-27T02:17:04.640Z,91.27
2023-03-27T02:18:04.687Z,91.58
2023-03-27T02:19:04.637Z,91.58
2023-03-27T02:20:04.625Z,91.69
2023-03-27T02:21:04.635Z,91.58
2023-03-27T02:22:04.595Z,91.58
2023-03-27T02:23:04.537Z,91.27
2023-03-27T02:24:04.532Z,91.06
2023-03-27T02:25:04.532Z,91.27
2023-03-27T02:26:04.521Z,91.47
2023-03-27T02:27:04.607Z,91.58
2023-03-27T02:28:04.530Z,91.47
2023-03-27T02:29:04.528Z,91.58
2023-03-27T02:30:04.519Z,91.37
2023-03-27T02:31:05.757Z,91.58
2023-03-27T02:32:04.718Z,91.47
2023-03-27T02:33:04.540Z,91.37
2023-03-27T02:34:04.495Z,91.47
2023-03-27T02:35:04.388Z,91.47
2023-03-27T02:36:04.460Z,91.58
2023-03-27T02:37:04.546Z,91.47
2023-03-27T02:38:04.441Z,91.37
2023-03-27T02:39:04.379Z,91.47
2023-03-27T02:40:04.401Z,91.69
2023-03-27T02:41:04.426Z,91.79
2023-03-27T02:42:04.408Z,91.79
2023-03-27T02:43:04.463Z,91.79
2023-03-27T02:44:04.395Z,91.79
2023-03-27T02:45:04.339Z,91.79
2023-03-27T02:46:04.408Z,91.79
2023-03-27T02:47:04.299Z,91.58
2023-03-27T02:48:04.466Z,91.37
2023-03-27T02:49:04.331Z,91.37
2023-03-27T02:50:04.334Z,91.37
2023-03-27T02:51:04.342Z,91.37
2023-03-27T02:52:04.269Z,91.27
2023-03-27T02:53:04.378Z,91.37
2023-03-27T02:54:04.236Z,91.47
2023-03-27T02:55:04.078Z,91.47
2023-03-27T02:56:04.259Z,91.37
2023-03-27T02:57:04.285Z,91.58
2023-03-27T02:58:04.245Z,91.47
2023-03-27T02:59:04.306Z,91.41
2023-03-27T03:00:04.116Z,91.47
2023-03-27T03:01:04.309Z,91.41
2023-03-27T03:02:04.256Z,91.52
2023-03-27T03:03:04.293Z,91.62
2023-03-27T03:04:04.207Z,91.41
2023-03-27T03:05:04.185Z,91.62
2023-03-27T03:06:04.185Z,91.72
2023-03-27T03:07:04.259Z,91.72
2023-03-27T03:08:04.183Z,91.83
2023-03-27T03:09:04.110Z,91.83
2023-03-27T03:10:04.196Z,91.94
2023-03-27T03:11:04.118Z,91.83
2023-03-27T03:12:04.130Z,91.94
2023-03-27T03:13:04.209Z,91.94
2023-03-27T03:14:04.051Z,91.83
2023-03-27T03:15:04.158Z,91.94
2023-03-27T03:16:03.986Z,92.04
2023-03-27T03:17:04.168Z,92.14
2023-03-27T03:18:04.127Z,92.35
2023-03-27T03:19:04.042Z,92.35
2023-03-27T03:20:04.067Z,92.14
2023-03-27T03:21:04.022Z,92.25
2023-03-27T03:22:04.064Z,91.94
2023-03-27T03:23:04.008Z,91.83
2023-03-27T03:24:04.035Z,91.72
2023-03-27T03:25:04.133Z,91.62
2023-03-27T03:26:04.015Z,91.72
2023-03-27T03:27:04.031Z,91.72
2023-03-27T03:28:03.882Z,91.52
2023-03-27T03:29:03.926Z,91.41
2023-03-27T03:30:03.935Z,91.41
2023-03-27T03:31:04.123Z,91.41
2023-03-27T03:32:03.940Z,91.62
2023-03-27T03:33:03.928Z,91.72
2023-03-27T03:34:03.993Z,91.83
2023-03-27T03:35:03.937Z,91.94
2023-03-27T03:36:03.985Z,91.83
2023-03-27T03:37:03.826Z,91.83
2023-03-27T03:38:03.709Z,91.83
2023-03-27T03:39:03.696Z,91.83
2023-03-27T03:40:03.726Z,91.83
2023-03-27T03:41:03.879Z,91.94
2023-03-27T03:42:03.873Z,92.14
2023-03-27T03:43:03.720Z,92.04
2023-03-27T03:44:03.853Z,91.94
2023-03-27T03:45:03.697Z,92.04
2023-03-27T03:46:03.815Z,92.04
2023-03-27T03:47:03.758Z,92.14
2023-03-27T03:48:03.866Z,92.14
2023-03-27T03:49:03.696Z,92.04
2023-03-27T03:50:03.820Z,92.14
2023-03-27T03:51:03.745Z,91.94
2023-03-27T03:52:04.999Z,92.04
2023-03-27T03:53:03.565Z,92.04
2023-03-27T03:54:03.583Z,91.94
2023-03-27T03:55:03.589Z,92.25
2023-03-27T03:56:03.775Z,92.25
2023-03-27T03:57:03.712Z,92.14
2023-03-27T03:58:03.692Z,92.35
2023-03-27T03:59:03.682Z,92.35
2023-03-27T04:00:03.726Z,92.14
2023-03-27T04:01:03.526Z,92.14
2023-03-27T04:02:03.854Z,92.14
2023-03-27T04:03:03.615Z,92.04
2023-03-27T04:04:03.487Z,92.14
2023-03-27T04:05:08.750Z,92.14
2023-03-27T04:06:03.643Z,92.14
2023-03-27T04:07:03.640Z,92.04
2023-03-27T04:08:03.572Z,92.04
2023-03-27T04:09:03.692Z,92.14
2023-03-27T04:10:03.592Z,92.04
2023-03-27T04:11:03.406Z,92.25
2023-03-27T04:12:03.614Z,92.25
2023-03-27T04:13:03.554Z,92.25
2023-03-27T04:14:03.608Z,92.14
2023-03-27T04:15:03.515Z,91.94
2023-03-27T04:16:03.536Z,92.04
2023-03-27T04:17:03.503Z,92.14
2023-03-27T04:18:03.639Z,92.14
2023-03-27T04:19:03.571Z,91.94
2023-03-27T04:20:03.502Z,91.94
2023-03-27T04:21:03.342Z,91.94
2023-03-27T04:22:03.366Z,91.83
2023-03-27T04:23:03.479Z,91.94
2023-03-27T04:24:03.510Z,92.04
2023-03-27T04:25:03.457Z,92.46
2023-03-27T04:26:03.502Z,92.46
2023-03-27T04:27:03.419Z,92.35
2023-03-27T04:28:03.393Z,92.14
2023-03-27T04:29:03.442Z,92.25
2023-03-27T04:30:03.390Z,92.14
2023-03-27T04:31:03.453Z,92.25
2023-03-27T04:32:03.566Z,92.14
2023-03-27T04:33:03.466Z,92.04
2023-03-27T04:34:03.465Z,91.94
2023-03-27T04:35:03.328Z,92.04
2023-03-27T04:36:06.350Z,92.14
2023-03-27T04:37:03.299Z,92.14
2023-03-27T04:38:03.280Z,92.35
2023-03-27T04:39:03.282Z,92.46
2023-03-27T04:40:03.363Z,92.46
2023-03-27T04:41:03.302Z,92.35
2023-03-27T04:42:03.220Z,92.25
2023-03-27T04:43:03.228Z,92.25
2023-03-27T04:44:03.233Z,92.14
2023-03-27T04:45:03.123Z,92.04
2023-03-27T04:46:03.128Z,91.94
2023-03-27T04:47:03.258Z,91.83
2023-03-27T04:48:03.297Z,91.94
2023-03-27T04:49:03.225Z,91.83
2023-03-27T04:50:03.205Z,91.94
2023-03-27T04:51:03.270Z,91.94
2023-03-27T04:52:03.183Z,92.14
2023-03-27T04:53:03.168Z,92.25
2023-03-27T04:54:03.227Z,92.25
2023-03-27T04:55:03.221Z,92.25
2023-03-27T04:56:03.178Z,92.04
2023-03-27T04:57:02.998Z,92.04
2023-03-27T04:58:02.910Z,92.04
2023-03-27T04:59:03.096Z,92.14
2023-03-27T05:00:02.904Z,92.14
2023-03-27T05:01:02.932Z,92.04
2023-03-27T05:02:02.899Z,91.94
2023-03-27T05:03:02.922Z,91.83
2023-03-27T05:04:03.082Z,91.83
2023-03-27T05:05:02.884Z,91.83
2023-03-27T05:06:02.866Z,91.72
2023-03-27T05:07:02.879Z,91.72
2023-03-27T05:08:02.820Z,91.83
2023-03-27T05:09:02.814Z,91.94
2023-03-27T05:10:02.827Z,92.04
2023-03-27T05:11:02.810Z,92.25
2023-03-27T05:12:02.999Z,92.14
2023-03-27T05:13:03.004Z,92.04
2023-03-27T05:14:02.777Z,92.04
2023-03-27T05:15:02.883Z,91.83
2023-03-27T05:16:02.910Z,91.94
2023-03-27T05:17:02.914Z,91.94
2023-03-27T05:18:02.953Z,92.14
2023-03-27T05:19:02.805Z,92.14
2023-03-27T05:20:02.743Z,92.14
2023-03-27T05:21:02.832Z,92.10
2023-03-27T05:22:02.788Z,92.00
2023-03-27T05:23:02.881Z,91.89
2023-03-27T05:24:02.877Z,91.79
2023-03-27T05:25:02.884Z,91.69
2023-03-27T05:26:02.879Z,91.79
2023-03-27T05:27:02.807Z,91.89
2023-03-27T05:28:02.808Z,91.89
2023-03-27T05:29:02.812Z,91.64
2023-03-27T05:30:02.740Z,91.54
2023-03-27T05:31:02.902Z,91.54
2023-03-27T05:32:02.776Z,91.33
2023-03-27T05:33:02.831Z,91.43
2023-03-27T05:34:02.735Z,91.28
2023-03-27T05:35:02.741Z,91.18
2023-03-27T05:36:02.862Z,91.18
2023-03-27T05:37:02.687Z,91.08
2023-03-27T05:38:02.525Z,91.03
2023-03-27T05:39:02.593Z,90.93
2023-03-27T05:40:02.717Z,90.83
2023-03-27T05:41:02.779Z,90.52
2023-03-27T05:42:02.699Z,90.16
2023-03-27T05:43:02.623Z,89.95
2023-03-27T05:44:02.677Z,89.95
2023-03-27T05:45:02.674Z,89.84
2023-03-27T05:46:02.502Z,89.64
2023-03-27T05:47:02.475Z,89.59
2023-03-27T05:48:02.741Z,89.59
2023-03-27T05:49:02.614Z,89.39
2023-03-27T05:50:02.787Z,89.28
2023-03-27T05:51:02.478Z,89.07
2023-03-27T05:52:02.398Z,89.18
2023-03-27T05:53:02.422Z,89.28
2023-03-27T05:54:02.613Z,89.18
2023-03-27T05:55:02.425Z,89.24
2023-03-27T05:56:03.640Z,89.34
2023-03-27T05:57:02.536Z,89.34
2023-03-27T05:58:02.672Z,89.56
2023-03-27T05:59:02.366Z,89.97
2023-03-27T06:00:02.409Z,89.76
2023-03-27T06:01:02.349Z,89.76
2023-03-27T06:02:02.454Z,89.62
2023-03-27T06:03:02.496Z,89.41
2023-03-27T06:04:02.382Z,89.31
2023-03-27T06:05:02.289Z,89.20
2023-03-27T06:06:02.293Z,89.20
2023-03-27T06:07:02.304Z,89.20
2023-03-27T06:08:02.266Z,89.10
2023-03-27T06:09:02.256Z,88.64
2023-03-27T06:10:02.513Z,88.43
2023-03-27T06:11:02.250Z,88.22
2023-03-27T06:12:02.512Z,87.81
2023-03-27T06:13:02.227Z,87.55
2023-03-27T06:14:02.178Z,87.14
2023-03-27T06:15:02.285Z,86.72
2023-03-27T06:16:02.216Z,86.41
2023-03-27T06:17:02.142Z,86.27
2023-03-27T06:18:02.546Z,85.25
2023-03-27T06:19:02.157Z,82.25
2023-03-27T06:20:02.274Z,78.68
2023-03-27T06:21:02.134Z,74.95
2023-03-27T06:22:02.202Z,72.16
2023-03-27T06:23:02.342Z,70.23
2023-03-27T06:24:02.488Z,68.41
2023-03-27T06:25:02.146Z,67.24
2023-03-27T06:26:02.051Z,66.91
2023-03-27T06:27:02.284Z,65.33
2023-03-27T06:28:02.179Z,64.44
2023-03-27T06:29:02.286Z,62.23
2023-03-27T06:30:02.045Z,60.86
2023-03-27T06:31:02.143Z,60.08
2023-03-27T06:32:02.074Z,58.62
2023-03-27T06:33:02.229Z,57.49
2023-03-27T06:34:02.275Z,57.77
2023-03-27T06:35:02.010Z,56.98
2023-03-27T06:36:01.992Z,58.80
2023-03-27T06:37:02.058Z,60.06
2023-03-27T06:38:01.952Z,58.95
2023-03-27T06:39:01.965Z,57.75
2023-03-27T06:40:02.346Z,55.41
2023-03-27T06:41:02.105Z,54.95
2023-03-27T06:42:01.927Z,52.03
2023-03-27T06:43:01.902Z,50.78
2023-03-27T06:44:01.911Z,50.00
2023-03-27T06:45:01.947Z,48.42
2023-03-27T06:46:01.945Z,47.58
2023-03-27T06:47:01.926Z,46.03
2023-03-27T06:48:17.007Z,46.42
2023-03-27T06:49:01.845Z,45.50
2023-03-27T06:50:01.818Z,46.62
2023-03-27T06:51:02.198Z,45.28
2023-03-27T06:52:02.061Z,44.73
2023-03-27T06:53:03.070Z,44.08
2023-03-27T06:54:01.984Z,42.94
2023-03-27T06:55:01.982Z,42.51
2023-03-27T06:56:01.916Z,41.58
2023-03-27T06:57:01.985Z,40.95
2023-03-27T06:58:01.813Z,41.01
2023-03-27T06:59:01.732Z,41.21
2023-03-27T07:00:02.679Z,41.33
2023-03-27T07:01:01.753Z,41.88
2023-03-27T07:02:01.820Z,45.26
2023-03-27T07:03:01.945Z,45.81
2023-03-27T07:04:01.864Z,47.16
2023-03-27T07:05:05.111Z,47.98
2023-03-27T07:06:01.852Z,45.63
2023-03-27T07:07:01.678Z,43.81
2023-03-27T07:08:11.411Z,42.76
2023-03-27T07:09:01.656Z,44.40
2023-03-27T07:10:01.672Z,46.57
2023-03-27T07:11:11.687Z,48.07
2023-03-27T07:12:01.834Z,49.47
2023-03-27T07:13:01.631Z,48.51
2023-03-27T07:14:01.556Z,46.38
2023-03-27T07:15:01.570Z,44.89
2023-03-27T07:16:01.654Z,44.18
2023-03-27T07:17:01.555Z,42.92
2023-03-27T07:18:01.601Z,43.18
2023-03-27T07:19:02.589Z,42.69
2023-03-27T07:20:01.533Z,43.75
2023-03-27T07:21:01.516Z,44.59
2023-03-27T07:22:01.646Z,44.43
2023-03-27T07:23:01.568Z,45.75
2023-03-27T07:24:01.540Z,46.69
2023-03-27T07:25:01.493Z,47.02
2023-03-27T07:26:01.725Z,47.47
2023-03-27T07:27:01.719Z,48.94
2023-03-27T07:28:02.119Z,49.50
2023-03-27T07:29:01.784Z,49.52
2023-03-27T07:30:01.424Z,50.49
2023-03-27T07:31:02.609Z,51.64
2023-03-27T07:32:06.050Z,51.82
2023-03-27T07:33:01.502Z,51.39
2023-03-27T07:34:01.757Z,50.27
2023-03-27T07:35:01.667Z,48.36
2023-03-27T07:36:01.436Z,46.48
2023-03-27T07:37:01.362Z,44.81
2023-03-27T07:38:01.335Z,44.85
2023-03-27T07:39:01.339Z,46.92
2023-03-27T07:40:01.353Z,44.98
2023-03-27T07:41:01.307Z,47.02
2023-03-27T07:42:01.326Z,45.20
2023-03-27T07:43:01.273Z,47.31
2023-03-27T07:44:01.660Z,49.40
2023-03-27T07:45:04.012Z,50.37
2023-03-27T07:46:01.300Z,50.93
2023-03-27T07:47:01.238Z,52.08
2023-03-27T07:48:01.613Z,52.00
2023-03-27T07:49:01.231Z,53.87
2023-03-27T07:50:01.187Z,53.33
2023-03-27T07:51:12.914Z,53.25
2023-03-27T07:52:01.144Z,55.23
2023-03-27T07:53:01.172Z,56.85
2023-03-27T07:54:01.244Z,55.95
2023-03-27T07:55:01.160Z,55.77
2023-03-27T07:56:01.214Z,56.10
2023-03-27T07:57:01.345Z,56.41
2023-03-27T07:58:02.854Z,56.21
2023-03-27T07:59:01.125Z,55.85
2023-03-27T08:00:01.116Z,53.85
2023-03-27T08:01:01.101Z,53.95
2023-03-27T08:02:01.123Z,52.83
2023-03-27T08:03:01.450Z,50.48
2023-03-27T08:04:01.165Z,48.18
2023-03-27T08:05:01.384Z,49.38
2023-03-27T08:06:01.105Z,47.26
2023-03-27T08:07:01.096Z,45.24
2023-03-27T08:08:01.025Z,42.94
2023-03-27T08:09:02.678Z,41.72
2023-03-27T08:10:01.242Z,42.35
2023-03-27T08:11:01.080Z,42.86
2023-03-27T08:12:00.994Z,39.98
2023-03-27T08:13:00.953Z,40.83
2023-03-27T08:14:00.940Z,42.19
2023-03-27T08:15:00.930Z,39.06
2023-03-27T08:16:01.121Z,38.97
2023-03-27T08:17:14.529Z,38.67
2023-03-27T08:18:01.024Z,38.71
2023-03-27T08:19:00.927Z,37.90
2023-03-27T08:20:00.870Z,37.18
2023-03-27T08:21:00.864Z,36.96
2023-03-27T08:22:00.861Z,35.83
2023-03-27T08:23:00.914Z,37.34
2023-03-27T08:24:00.847Z,37.43
2023-03-27T08:25:00.879Z,39.55
2023-03-27T08:26:00.842Z,40.54
2023-03-27T08:27:00.870Z,41.78
2023-03-27T08:28:00.812Z,41.07
2023-03-27T08:29:00.805Z,40.18
2023-03-27T08:30:01.119Z,41.88
2023-03-27T08:31:02.891Z,42.55
2023-03-27T08:32:01.675Z,44.10
2023-03-27T08:33:00.784Z,44.87
2023-03-27T08:34:00.946Z,45.55
2023-03-27T08:35:00.929Z,47.45
2023-03-27T08:36:01.180Z,48.09
2023-03-27T08:37:00.897Z,49.90
2023-03-27T08:38:00.661Z,50.59
2023-03-27T08:39:00.736Z,50.09
2023-03-27T08:40:00.674Z,51.54
2023-03-27T08:41:00.921Z,51.46
2023-03-27T08:42:00.677Z,51.72
2023-03-27T08:43:00.635Z,52.54
2023-03-27T08:44:00.654Z,53.49
2023-03-27T08:45:00.640Z,54.02
2023-03-27T08:46:00.752Z,54.87
2023-03-27T08:47:00.644Z,54.97
2023-03-27T08:48:00.848Z,56.41
2023-03-27T08:49:00.632Z,56.62
2023-03-27T08:50:00.597Z,57.06
2023-03-27T08:51:00.564Z,56.82
2023-03-27T08:52:00.599Z,58.08
2023-03-27T08:53:00.546Z,57.78
2023-03-27T08:54:00.648Z,58.42
2023-03-27T08:55:00.717Z,58.01
2023-03-27T08:56:00.501Z,57.52
2023-03-27T08:57:00.595Z,58.06
2023-03-27T08:58:00.601Z,58.06
2023-03-27T08:59:00.460Z,58.58
2023-03-27T09:00:00.444Z,58.37
2023-03-27T09:01:00.477Z,57.86
2023-03-27T09:02:00.493Z,56.51
2023-03-27T09:03:00.528Z,56.13
2023-03-27T09:04:00.750Z,53.80
2023-03-27T09:05:00.439Z,52.08
2023-03-27T09:06:00.458Z,50.25
2023-03-27T09:07:00.405Z,49.37
2023-03-27T09:08:00.449Z,48.61
2023-03-27T09:09:00.366Z,50.01
2023-03-27T09:10:00.549Z,50.65
2023-03-27T09:11:00.503Z,51.80
2023-03-27T09:12:00.600Z,51.80
2023-03-27T09:13:00.553Z,51.82
2023-03-27T09:14:00.631Z,52.85
2023-03-27T09:15:00.498Z,52.85
2023-03-27T09:16:00.734Z,52.15
2023-03-27T09:17:00.545Z,52.49
2023-03-27T09:18:00.664Z,52.10
2023-03-27T09:19:00.533Z,53.28
2023-03-27T09:20:00.298Z,53.20
2023-03-27T09:21:00.509Z,49.52
2023-03-27T09:22:00.501Z,47.90
2023-03-27T09:23:00.600Z,47.83
2023-03-27T09:24:00.480Z,46.26
2023-03-27T09:25:00.443Z,43.69
2023-03-27T09:26:00.438Z,43.24
2023-03-27T09:27:07.247Z,42.90
2023-03-27T09:28:00.378Z,42.86
2023-03-27T09:29:00.491Z,40.50
2023-03-27T09:30:05.702Z,40.08
2023-03-27T09:31:00.352Z,39.86
2023-03-27T09:32:00.294Z,39.86
2023-03-27T09:33:00.305Z,38.52
2023-03-27T09:34:00.232Z,38.60
2023-03-27T09:35:00.214Z,39.20
2023-03-27T09:36:00.635Z,39.32
2023-03-27T09:37:00.262Z,39.40
2023-03-27T09:38:00.239Z,38.86
2023-03-27T09:39:00.324Z,39.98
2023-03-27T09:40:00.480Z,39.11
2023-03-27T09:41:00.274Z,39.06
2023-03-27T09:42:00.245Z,39.20
2023-03-27T09:43:00.218Z,40.17
2023-03-27T09:44:00.312Z,39.53
2023-03-27T09:45:00.211Z,39.22
2023-03-27T09:46:00.319Z,40.70
2023-03-27T09:47:00.288Z,40.45
2023-03-27T09:48:00.310Z,41.59
2023-03-27T09:49:00.142Z,41.86
2023-03-27T09:50:00.292Z,41.69
2023-03-27T09:51:00.191Z,43.26
2023-03-27T09:52:00.114Z,44.10
2023-03-27T09:53:00.121Z,44.00
2023-03-27T09:54:00.152Z,43.82
2023-03-27T09:55:00.114Z,43.53
2023-03-27T09:56:02.381Z,43.73
2023-03-27T09:57:00.071Z,43.61
2023-03-27T09:58:00.142Z,42.67
2023-03-27T09:59:00.123Z,42.47
2023-03-27T10:00:00.294Z,43.02
2023-03-27T10:00:59.992Z,43.35
2023-03-27T10:01:59.822Z,41.96
2023-03-27T10:03:00.145Z,41.61
2023-03-27T10:03:59.940Z,40.12
2023-03-27T10:04:59.811Z,41.09
2023-03-27T10:05:59.876Z,39.73
2023-03-27T10:06:59.789Z,38.96
2023-03-27T10:07:59.767Z,37.24
2023-03-27T10:08:59.831Z,38.57
2023-03-27T10:09:59.724Z,37.91
2023-03-27T10:10:59.869Z,36.66
2023-03-27T10:11:59.989Z,36.82
2023-03-27T10:12:59.912Z,37.46
2023-03-27T10:13:59.865Z,37.29
2023-03-27T10:14:59.710Z,38.24
2023-03-27T10:15:59.732Z,37.12
2023-03-27T10:16:59.689Z,36.08
2023-03-27T10:17:59.905Z,36.60
2023-03-27T10:18:59.860Z,36.65
2023-03-27T10:19:59.686Z,35.88
2023-03-27T10:20:59.653Z,36.29
2023-03-27T10:21:59.829Z,34.97
2023-03-27T10:22:59.643Z,34.22
2023-03-27T10:23:59.764Z,34.18
2023-03-27T10:24:59.821Z,34.55
2023-03-27T10:25:59.553Z,33.22
2023-03-27T10:26:59.855Z,33.95
2023-03-27T10:27:59.756Z,33.50
2023-03-27T10:28:59.581Z,33.36
2023-03-27T10:29:59.536Z,32.52
2023-03-27T10:30:59.585Z,31.48
2023-03-27T10:31:59.546Z,29.76
2023-03-27T10:32:59.537Z,30.58
2023-03-27T10:33:59.508Z,31.16
2023-03-27T10:34:59.485Z,32.08
2023-03-27T10:35:59.504Z,31.52
2023-03-27T10:36:59.432Z,33.17
2023-03-27T10:37:59.544Z,33.54
2023-03-27T10:38:59.469Z,32.10
2023-03-27T10:39:59.501Z,31.76
2023-03-27T10:40:59.541Z,31.24
2023-03-27T10:41:59.518Z,30.54
2023-03-27T10:42:59.681Z,29.74
2023-03-27T10:43:59.436Z,28.14
2023-03-27T10:44:59.368Z,28.02
2023-03-27T10:45:59.376Z,30.68
2023-03-27T10:46:59.509Z,28.23
2023-03-27T10:47:59.530Z,28.91
2023-03-27T10:48:59.614Z,28.09
2023-03-27T10:49:59.595Z,28.81
2023-03-27T10:50:59.619Z,28.78
2023-03-27T10:51:59.544Z,27.29
2023-03-27T10:52:59.461Z,29.86
2023-03-27T10:53:59.581Z,30.48
2023-03-27T10:54:59.381Z,30.91
2023-03-27T10:55:59.418Z,31.77
2023-03-27T10:56:59.591Z,33.81
2023-03-27T10:57:59.501Z,34.38
2023-03-27T10:58:59.383Z,35.12
2023-03-27T10:59:59.647Z,34.72
2023-03-27T11:00:59.633Z,33.75
2023-03-27T11:01:59.405Z,33.20
2023-03-27T11:02:59.317Z,33.00
2023-03-27T11:03:59.402Z,32.20
2023-03-27T11:04:59.351Z,32.20
2023-03-27T11:05:59.436Z,31.67
2023-03-27T11:06:59.446Z,31.34
2023-03-27T11:07:59.306Z,31.42
2023-03-27T11:08:59.384Z,32.82
2023-03-27T11:09:59.381Z,31.68
2023-03-27T11:10:59.244Z,30.46
2023-03-27T11:11:59.051Z,30.05
2023-03-27T11:12:59.064Z,29.37
2023-03-27T11:13:59.147Z,29.36
2023-03-27T11:14:59.073Z,29.86
2023-03-27T11:15:59.054Z,29.85
2023-03-27T11:16:59.171Z,29.75
2023-03-27T11:17:59.028Z,29.11
2023-03-27T11:18:59.010Z,29.33
2023-03-27T11:19:59.030Z,28.63
2023-03-27T11:20:59.105Z,29.52
2023-03-27T11:21:59.013Z,27.70
2023-03-27T11:22:58.976Z,28.61
2023-03-27T11:23:58.988Z,28.63
2023-03-27T11:24:59.210Z,29.41
2023-03-27T11:25:59.110Z,29.71
2023-03-27T11:26:59.228Z,29.35
2023-03-27T11:27:59.114Z,29.49
2023-03-27T11:28:59.267Z,30.12
2023-03-27T11:29:58.928Z,30.87
2023-03-27T11:30:59.134Z,31.49
2023-03-27T11:31:58.945Z,31.03
2023-03-27T11:32:58.954Z,31.54
2023-03-27T11:33:58.872Z,32.25
2023-03-27T11:34:58.903Z,33.25
2023-03-27T11:35:58.878Z,34.08
2023-03-27T11:36:58.842Z,32.47
2023-03-27T11:37:58.873Z,33.11
2023-03-27T11:38:58.793Z,33.04
2023-03-27T11:39:59.095Z,34.09
2023-03-27T11:40:59.246Z,35.12
2023-03-27T11:41:58.945Z,34.93
2023-03-27T11:42:58.809Z,35.99
2023-03-27T11:43:59.124Z,38.24
2023-03-27T11:44:58.778Z,37.75
2023-03-27T11:45:58.942Z,38.18
2023-03-27T11:46:59.013Z,40.03
2023-03-27T11:47:58.779Z,41.30
2023-03-27T11:48:58.742Z,43.77
2023-03-27T11:49:58.916Z,43.37
2023-03-27T11:50:59.019Z,44.08
2023-03-27T11:51:58.914Z,46.56
2023-03-27T11:52:58.919Z,48.34
2023-03-27T11:53:58.696Z,50.39
2023-03-27T11:54:58.806Z,51.31
2023-03-27T11:55:58.939Z,52.03
2023-03-27T11:56:58.656Z,52.31
2023-03-27T11:57:58.829Z,51.82
2023-03-27T11:58:58.634Z,51.82
2023-03-27T11:59:58.600Z,52.03
2023-03-27T12:00:58.981Z,52.23
2023-03-27T12:01:58.905Z,51.93
2023-03-27T12:02:58.809Z,51.44
2023-03-27T12:03:58.820Z,52.36
2023-03-27T12:04:58.693Z,52.87
2023-03-27T12:05:58.828Z,51.77
2023-03-27T12:07:04.286Z,51.67
2023-03-27T12:07:58.744Z,52.41
2023-03-27T12:08:58.677Z,52.20
2023-03-27T12:09:58.705Z,52.20
2023-03-27T12:10:58.812Z,52.61
2023-03-27T12:11:58.499Z,53.25
2023-03-27T12:12:58.734Z,53.05
2023-03-27T12:14:02.066Z,53.46
2023-03-27T12:14:58.683Z,54.28
2023-03-27T12:15:58.589Z,55.13
2023-03-27T12:16:58.739Z,57.41
2023-03-27T12:17:58.539Z,58.57
2023-03-27T12:19:04.223Z,59.39
2023-03-27T12:19:58.577Z,59.98
2023-03-27T12:20:58.472Z,61.80
2023-03-27T12:21:58.339Z,62.49
2023-03-27T12:22:58.713Z,61.23
2023-03-27T12:23:58.327Z,61.10
2023-03-27T12:24:59.931Z,60.28
2023-03-27T12:25:58.523Z,58.23
2023-03-27T12:26:58.541Z,59.33
2023-03-27T12:27:58.571Z,60.15
2023-03-27T12:28:58.485Z,58.72
2023-03-27T12:29:58.413Z,56.77
2023-03-27T12:30:58.568Z,56.05
2023-03-27T12:31:58.328Z,54.51
2023-03-27T12:33:00.115Z,54.61
2023-03-27T12:33:58.233Z,56.49
2023-03-27T12:34:58.273Z,56.18
2023-03-27T12:35:58.425Z,53.74
2023-03-27T12:36:58.225Z,54.44
2023-03-27T12:37:58.279Z,54.33
2023-03-27T12:38:58.242Z,54.64
2023-03-27T12:39:58.237Z,52.59
2023-03-27T12:40:58.463Z,51.95
2023-03-27T12:41:58.390Z,52.56
2023-03-27T12:42:58.382Z,52.67
2023-03-27T12:43:58.382Z,52.95
2023-03-27T12:45:00.023Z,49.77
2023-03-27T12:45:58.283Z,48.55
2023-03-27T12:46:58.220Z,48.16
2023-03-27T12:47:58.117Z,49.90
2023-03-27T12:48:58.204Z,50.01
2023-03-27T12:49:58.293Z,50.42
2023-03-27T12:50:58.323Z,51.54
2023-03-27T12:51:58.261Z,50.39